GCLP/LPA METAR and TAF weather

Enter ICAO airport designator
Station Type Date Time Source
GCLP METAR 2021/03/08 12:00 UTC NOAA

GCLP 081200Z 01016KT 330V030 9999 FEW018 SCT025 BKN035 21/14 Q1020 NOSIG


Station Type Date Time Source
GCLP Decoded METAR 2021/03/08 12:00 UTC NOAA

Gran Canaria - Canary Islands, Spain (GCLP) 27-56N 015-23W 47M
Mar 08, 2021 - 07:00 AM EST / 2021.03.08 1200 UTC
Wind: from the N (010 degrees) at 18 MPH (16 KT) (direction variable):0
Visibility: greater than 7 mile(s):0
Sky conditions: mostly cloudy
Temperature: 69 F (21 C)
Dew Point: 57 F (14 C)
Relative Humidity: 64%
Pressure (altimeter): 30.12 in. Hg (1020 hPa)
ob: GCLP 081200Z 01016KT 330V030 9999 FEW018 SCT025 BKN035 21/14 Q1020 NOSIG
cycle: 12

Station Type Date Time Source
GCLP TAF 2021/03/08 10:46 UTC NOAA

TAF
AMD GCLP 081036Z 0810/0909 02014KT 9999 BKN057 TX21/0814Z TN16/0907Z PROB30
TEMPO 0816/0822 4500 RA

Example: see airport list